Time;durP1;ratioP1;P1;durP2;ratioP2;P2;SDS_P1;SDS_P2;PMS_P1;PMS_P2;Temp;Humidity;BMP_temperature;BMP_pressure;BME280_temperature;BME280_humidity;BME280_pressure;Samples;Min_cycle;Max_cycle;Signal;HPM_P1;HPM_P2
2022/07/17 00:00:14;;;;;;;6.85;2.10;;;15.90;99.90;;;;;;5007729;28;20037;-71
2022/07/17 00:02:40;;;;;;;4.75;1.98;;;15.90;99.90;;;;;;5004772;28;20045;-72
2022/07/17 00:05:06;;;;;;;7.30;1.80;;;15.90;99.90;;;;;;5006329;28;20488;-71
2022/07/17 00:07:32;;;;;;;5.45;2.05;;;15.80;99.90;;;;;;5004517;28;20038;-72
2022/07/17 00:09:57;;;;;;;6.32;2.03;;;15.80;99.90;;;;;;5002910;28;20037;-73
2022/07/17 00:12:23;;;;;;;7.63;1.90;;;15.70;99.90;;;;;;5011364;28;20129;-71
2022/07/17 00:14:49;;;;;;;4.25;1.90;;;15.60;99.90;;;;;;5014671;28;20489;-73
2022/07/17 00:17:14;;;;;;;5.13;1.95;;;15.60;99.90;;;;;;5007785;28;20034;-71
2022/07/17 00:19:40;;;;;;;5.38;2.15;;;15.50;99.90;;;;;;4990947;28;20033;-71
2022/07/17 00:22:07;;;;;;;5.93;2.30;;;15.50;99.90;;;;;;5008098;28;20040;-70
2022/07/17 00:24:32;;;;;;;5.28;2.40;;;15.40;99.90;;;;;;5007690;28;20038;-70
2022/07/17 00:26:59;;;;;;;7.53;2.47;;;15.40;99.90;;;;;;5007083;28;20037;-71
2022/07/17 00:29:25;;;;;;;5.63;2.17;;;15.40;99.90;;;;;;5006062;28;20444;-72
2022/07/17 00:31:51;;;;;;;6.35;2.20;;;15.40;99.90;;;;;;4989315;28;20037;-71
2022/07/17 00:34:16;;;;;;;5.63;2.28;;;15.30;99.90;;;;;;5006382;28;20064;-70
2022/07/17 00:36:42;;;;;;;5.95;2.13;;;15.20;99.90;;;;;;5005856;28;20113;-72
2022/07/17 00:39:08;;;;;;;7.22;2.22;;;15.20;99.90;;;;;;5006665;28;20072;-71
2022/07/17 00:41:34;;;;;;;7.35;2.22;;;15.20;99.90;;;;;;5006821;28;20037;-72
2022/07/17 00:44:08;;;;;;;4.53;2.10;;;15.20;99.90;;;;;;5006125;28;20045;-73
2022/07/17 00:46:34;;;;;;;6.75;2.30;;;15.20;99.90;;;;;;5005307;28;20037;-72
2022/07/17 00:49:00;;;;;;;5.43;2.28;;;15.20;99.90;;;;;;5005779;28;20540;-73
2022/07/17 00:51:26;;;;;;;9.30;2.65;;;15.10;99.90;;;;;;5004822;28;20727;-71
2022/07/17 00:53:52;;;;;;;5.70;2.50;;;15.10;99.90;;;;;;5006209;28;20038;-71
2022/07/17 00:56:22;;;;;;;6.63;2.50;;;15.20;99.90;;;;;;5005690;28;20037;-71
2022/07/17 00:58:48;;;;;;;;;;;15.10;99.90;;;;;;5007719;28;20029;-72
2022/07/17 01:01:14;;;;;;;5.10;2.50;;;15.00;99.90;;;;;;5006531;28;19917;-71
2022/07/17 01:03:40;;;;;;;5.28;2.42;;;15.00;99.90;;;;;;4988935;28;20049;-70
2022/07/17 01:06:07;;;;;;;7.32;3.30;;;15.00;99.90;;;;;;5003808;28;20029;-71
2022/07/17 01:08:33;;;;;;;6.55;2.85;;;14.90;99.90;;;;;;5010413;28;20065;-73
2022/07/17 01:11:00;;;;;;;7.72;3.50;;;14.90;99.90;;;;;;4992529;28;20069;-71
2022/07/17 01:13:26;;;;;;;7.55;3.70;;;14.90;99.90;;;;;;5011221;28;20128;-71
2022/07/17 01:15:52;;;;;;;7.95;3.38;;;14.90;99.90;;;;;;5009271;28;20551;-72
2022/07/17 01:18:18;;;;;;;7.07;3.45;;;14.80;99.90;;;;;;5011506;28;20109;-72
2022/07/17 01:20:47;;;;;;;7.93;3.25;;;14.70;99.90;;;;;;5009944;28;20041;-71
2022/07/17 01:23:14;;;;;;;6.53;3.35;;;14.70;99.90;;;;;;5009749;28;20038;-71
2022/07/17 01:25:39;;;;;;;5.82;3.00;;;14.70;99.90;;;;;;5014491;28;20055;-71
2022/07/17 01:28:06;;;;;;;6.95;3.00;;;14.60;99.90;;;;;;5012564;28;20034;-71
2022/07/17 01:30:32;;;;;;;5.95;3.50;;;14.50;99.90;;;;;;5011249;28;20033;-71
2022/07/17 01:32:58;;;;;;;7.10;3.33;;;14.60;99.90;;;;;;5011396;28;20075;-72
2022/07/17 01:35:23;;;;;;;10.43;3.83;;;14.60;99.90;;;;;;5016960;28;20460;-72
2022/07/17 01:37:49;;;;;;;7.63;3.85;;;14.60;99.90;;;;;;5007085;28;20389;-70
2022/07/17 01:40:16;;;;;;;10.57;3.83;;;14.50;99.90;;;;;;5009239;28;20165;-71
2022/07/17 01:42:48;;;;;;;7.90;3.60;;;14.50;99.90;;;;;;5008903;28;20037;-71
2022/07/17 01:45:16;;;;;;;8.75;4.03;;;14.40;99.90;;;;;;5009870;28;20044;-72
2022/07/17 01:47:42;;;;;;;7.53;3.83;;;14.30;99.90;;;;;;5009096;28;20491;-71
2022/07/17 01:50:09;;;;;;;6.82;3.90;;;14.10;99.90;;;;;;5010275;28;20037;-71
2022/07/17 01:52:38;;;;;;;9.68;4.00;;;14.10;99.90;;;;;;5005936;28;20088;-71
2022/07/17 01:55:05;;;;;;;6.20;3.33;;;14.20;99.90;;;;;;5010261;28;20030;-72
2022/07/17 01:57:31;;;;;;;9.93;4.07;;;14.10;99.90;;;;;;5008456;28;20072;-70
2022/07/17 01:59:57;;;;;;;8.73;4.03;;;14.10;99.90;;;;;;4993626;28;20054;-71
2022/07/17 02:02:22;;;;;;;5.50;3.53;;;14.10;99.90;;;;;;5009845;28;20030;-70
2022/07/17 02:04:48;;;;;;;6.70;3.20;;;14.10;99.90;;;;;;4993088;28;20140;-71
2022/07/17 02:07:14;;;;;;;5.78;3.00;;;14.10;99.90;;;;;;5006769;28;20034;-71
2022/07/17 02:09:39;;;;;;;6.50;3.33;;;14.20;99.90;;;;;;5009062;28;20026;-70
2022/07/17 02:12:06;;;;;;;6.72;3.75;;;14.20;99.90;;;;;;5009598;28;20048;-71
2022/07/17 02:14:32;;;;;;;7.13;3.45;;;14.30;99.90;;;;;;5010404;28;20480;-71
2022/07/17 02:16:58;;;;;;;6.72;3.67;;;14.30;99.90;;;;;;4997900;28;20061;-71
2022/07/17 02:19:24;;;;;;;6.78;3.20;;;14.30;99.90;;;;;;5009175;28;20057;-71
2022/07/17 02:21:49;;;;;;;9.13;3.50;;;14.40;99.90;;;;;;5008412;28;20060;-71
2022/07/17 02:24:15;;;;;;;8.45;3.67;;;14.30;99.90;;;;;;5007237;28;20046;-70
2022/07/17 02:26:41;;;;;;;6.30;3.55;;;14.20;99.90;;;;;;5017432;28;20038;-71
2022/07/17 02:29:07;;;;;;;6.07;3.35;;;14.20;99.90;;;;;;5006577;28;20040;-72
2022/07/17 02:31:32;;;;;;;6.95;3.50;;;14.20;99.90;;;;;;5009115;28;20651;-72
2022/07/17 02:33:58;;;;;;;8.90;4.00;;;14.20;99.90;;;;;;5010551;28;20033;-70
2022/07/17 02:36:24;;;;;;;7.07;3.88;;;14.20;99.90;;;;;;5006365;28;20030;-71
2022/07/17 02:38:50;;;;;;;7.53;3.58;;;14.20;99.90;;;;;;5007664;28;20146;-72
2022/07/17 02:41:16;;;;;;;7.35;3.60;;;14.20;99.90;;;;;;4991728;28;20038;-71
2022/07/17 02:43:42;;;;;;;8.43;3.97;;;14.20;99.90;;;;;;5008728;28;20057;-71
2022/07/17 02:46:08;;;;;;;7.25;3.80;;;14.20;99.90;;;;;;5005334;28;20083;-70
2022/07/17 02:48:34;;;;;;;5.82;3.45;;;14.20;99.90;;;;;;5008527;28;20038;-72
2022/07/17 02:51:00;;;;;;;6.55;3.72;;;14.20;99.90;;;;;;5009281;28;20053;-71
2022/07/17 02:53:25;;;;;;;8.98;4.22;;;14.20;99.90;;;;;;4990960;28;20137;-74
2022/07/17 02:55:51;;;;;;;6.97;3.95;;;14.10;99.90;;;;;;5007602;28;20380;-73
2022/07/17 02:58:17;;;;;;;9.35;4.03;;;14.00;99.90;;;;;;5007645;28;20037;-71
2022/07/17 03:00:42;;;;;;;9.93;4.38;;;14.00;99.90;;;;;;5007257;28;20056;-72
2022/07/17 03:03:08;;;;;;;6.78;3.97;;;14.00;99.90;;;;;;4999346;28;20061;-71
2022/07/17 03:05:34;;;;;;;8.75;4.53;;;14.00;99.90;;;;;;5008703;28;20491;-73
2022/07/17 03:07:59;;;;;;;9.75;4.47;;;13.90;99.90;;;;;;5008406;28;20181;-71
2022/07/17 03:10:25;;;;;;;8.25;4.47;;;13.90;99.90;;;;;;5009444;28;20044;-71
2022/07/17 03:12:51;;;;;;;7.55;4.22;;;13.90;99.90;;;;;;5006684;28;20044;-71
2022/07/17 03:15:17;;;;;;;6.65;4.50;;;13.90;99.90;;;;;;4995611;28;20056;-71
2022/07/17 03:17:42;;;;;;;8.70;4.35;;;13.80;99.90;;;;;;4990730;28;20439;-71
2022/07/17 03:20:09;;;;;;;7.30;4.60;;;13.70;99.90;;;;;;5008427;28;20115;-71
2022/07/17 03:22:35;;;;;;;9.23;4.30;;;13.60;99.90;;;;;;5007643;28;20053;-70
2022/07/17 03:25:01;;;;;;;7.65;4.45;;;13.60;99.90;;;;;;5007315;28;20401;-70
2022/07/17 03:27:26;;;;;;;7.65;4.20;;;13.50;99.90;;;;;;5007962;28;20393;-73
2022/07/17 03:29:53;;;;;;;6.75;4.10;;;13.50;99.90;;;;;;4993803;28;20041;-70
2022/07/17 03:32:19;;;;;;;9.10;4.32;;;13.40;99.90;;;;;;5006431;28;20033;-73
2022/07/17 03:34:45;;;;;;;6.00;3.97;;;13.40;99.90;;;;;;4989367;28;20575;-71
2022/07/17 03:37:11;;;;;;;7.07;4.57;;;13.50;99.90;;;;;;4990506;28;20041;-71
2022/07/17 03:39:36;;;;;;;8.07;3.80;;;13.50;99.90;;;;;;5007564;28;20594;-71
2022/07/17 03:42:03;;;;;;;7.78;4.25;;;13.50;99.90;;;;;;4990150;28;20476;-71
2022/07/17 03:44:28;;;;;;;7.00;4.32;;;13.50;99.90;;;;;;5010222;28;20073;-71
2022/07/17 03:46:54;;;;;;;8.07;4.45;;;13.50;99.90;;;;;;5008718;28;20134;-71
2022/07/17 03:49:20;;;;;;;8.40;4.20;;;13.50;99.90;;;;;;4980269;28;20053;-71
2022/07/17 03:51:45;;;;;;;8.25;4.10;;;13.40;99.90;;;;;;5006664;28;20038;-71
2022/07/17 03:54:11;;;;;;;8.15;4.40;;;13.40;99.90;;;;;;4995920;28;20038;-71
2022/07/17 03:56:37;;;;;;;6.82;3.72;;;13.30;99.90;;;;;;5013304;28;20029;-71
2022/07/17 03:59:02;;;;;;;7.90;4.30;;;13.30;99.90;;;;;;5006933;28;20454;-70
2022/07/17 04:01:28;;;;;;;7.13;4.15;;;13.20;99.90;;;;;;5007124;28;20116;-72
2022/07/17 04:03:54;;;;;;;8.10;4.18;;;13.20;99.90;;;;;;5014599;28;20536;-73
2022/07/17 04:06:19;;;;;;;7.47;4.30;;;13.20;99.90;;;;;;4990289;28;20481;-72
2022/07/17 04:08:45;;;;;;;7.53;4.38;;;13.20;99.90;;;;;;5004455;28;20476;-70
2022/07/17 04:11:11;;;;;;;6.97;4.03;;;13.20;99.90;;;;;;4988685;28;20029;-70
2022/07/17 04:13:37;;;;;;;6.55;3.83;;;13.20;99.90;;;;;;5009857;28;20032;-70
2022/07/17 04:16:03;;;;;;;7.10;4.10;;;13.20;99.90;;;;;;5005871;28;20033;-71
2022/07/17 04:18:30;;;;;;;6.90;3.88;;;13.30;99.90;;;;;;5006578;28;20034;-71
2022/07/17 04:21:00;;;;;;;6.47;4.00;;;13.30;99.90;;;;;;5006040;28;20532;-71
2022/07/17 04:23:26;;;;;;;6.32;4.03;;;13.30;99.90;;;;;;5006888;28;20050;-70
2022/07/17 04:25:52;;;;;;;7.22;4.57;;;13.30;99.90;;;;;;5003140;28;20026;-71
2022/07/17 04:28:19;;;;;;;8.35;4.55;;;13.20;99.90;;;;;;5006349;28;20029;-70
2022/07/17 04:30:44;;;;;;;8.73;4.00;;;13.20;99.90;;;;;;5006648;28;20049;-71
2022/07/17 04:33:11;;;;;;;9.45;5.13;;;13.20;99.90;;;;;;5013206;28;20033;-70
2022/07/17 04:35:37;;;;;;;6.47;3.80;;;13.20;99.90;;;;;;4989371;28;20034;-70
2022/07/17 04:38:05;;;;;;;6.82;3.97;;;13.10;99.90;;;;;;4989271;28;20057;-70
2022/07/17 04:40:31;;;;;;;6.82;3.85;;;13.10;99.90;;;;;;5005819;28;20041;-70
2022/07/17 04:42:57;;;;;;;7.82;4.45;;;13.10;99.90;;;;;;4989067;28;20359;-71
2022/07/17 04:45:23;;;;;;;7.13;3.67;;;13.20;99.90;;;;;;5007547;28;20563;-72
2022/07/17 04:47:49;;;;;;;7.38;3.90;;;13.20;99.90;;;;;;4988990;28;20088;-71
2022/07/17 04:50:14;;;;;;;8.35;4.28;;;13.30;99.90;;;;;;5005451;28;20126;-71
2022/07/17 04:52:40;;;;;;;6.18;3.67;;;13.30;99.90;;;;;;4994202;28;20109;-71
2022/07/17 04:55:06;;;;;;;9.10;4.53;;;13.30;99.90;;;;;;5006337;28;20049;-70
2022/07/17 04:57:32;;;;;;;6.97;4.05;;;13.30;99.90;;;;;;5006359;28;20117;-71
2022/07/17 04:59:58;;;;;;;8.05;3.80;;;13.30;99.90;;;;;;5015159;28;20116;-71
2022/07/17 05:02:23;;;;;;;7.10;3.90;;;13.20;99.90;;;;;;5005868;28;20534;-71
2022/07/17 05:04:49;;;;;;;7.47;4.05;;;13.20;99.90;;;;;;4989107;28;20141;-70
2022/07/17 05:07:15;;;;;;;9.30;3.97;;;13.20;99.90;;;;;;5002324;28;20400;-71
2022/07/17 05:09:41;;;;;;;7.07;4.13;;;13.30;99.90;;;;;;5003813;28;20037;-70
2022/07/17 05:12:07;;;;;;;5.93;3.80;;;13.30;99.90;;;;;;5004936;28;20034;-72
2022/07/17 05:14:33;;;;;;;5.88;3.58;;;13.40;99.90;;;;;;5005726;28;20451;-75
2022/07/17 05:16:59;;;;;;;7.40;3.50;;;13.50;99.90;;;;;;5010483;28;20037;-72
2022/07/17 05:19:24;;;;;;;7.13;4.20;;;13.60;99.90;;;;;;5005047;28;20369;-71
2022/07/17 05:21:50;;;;;;;7.82;4.20;;;13.70;99.90;;;;;;5004340;28;20121;-70
2022/07/17 05:24:16;;;;;;;8.20;4.70;;;13.70;99.90;;;;;;5004780;28;20046;-71
2022/07/17 05:26:42;;;;;;;8.20;4.28;;;13.80;99.90;;;;;;5006647;28;20571;-72
2022/07/17 05:29:07;;;;;;;8.40;4.18;;;13.80;99.90;;;;;;5006519;28;20116;-71
2022/07/17 05:31:33;;;;;;;10.07;4.18;;;13.90;99.90;;;;;;5008411;28;20082;-71
2022/07/17 05:33:59;;;;;;;7.03;4.13;;;13.90;99.90;;;;;;5006638;28;20623;-71
2022/07/17 05:36:24;;;;;;;7.10;4.55;;;14.00;99.90;;;;;;5005617;28;20606;-71
2022/07/17 05:38:50;;;;;;;8.65;4.47;;;14.10;99.90;;;;;;5005812;28;20582;-71
2022/07/17 05:41:16;;;;;;;8.00;4.10;;;14.10;99.90;;;;;;5004747;28;20026;-70
2022/07/17 05:43:42;;;;;;;8.25;4.40;;;14.10;99.90;;;;;;4999022;28;20132;-71
2022/07/17 05:46:07;;;;;;;11.00;4.80;;;14.20;99.90;;;;;;5006698;28;20160;-71
2022/07/17 05:48:33;;;;;;;7.78;3.95;;;14.20;99.90;;;;;;5014778;28;20504;-72
2022/07/17 05:50:59;;;;;;;8.65;3.97;;;14.30;99.90;;;;;;4987568;28;20030;-71
2022/07/17 05:53:24;;;;;;;7.20;3.45;;;14.50;99.90;;;;;;4989125;28;20052;-70
2022/07/17 05:55:50;;;;;;;6.78;3.58;;;14.50;99.90;;;;;;5011898;28;20397;-71
2022/07/17 05:58:16;;;;;;;8.60;3.63;;;14.70;99.90;;;;;;5010238;28;20042;-71
2022/07/17 06:00:42;;;;;;;7.28;3.80;;;14.80;99.90;;;;;;5006759;28;20034;-71
2022/07/17 06:03:08;;;;;;;6.70;3.15;;;14.90;99.90;;;;;;5008695;28;20072;-72
2022/07/17 06:05:34;;;;;;;7.95;3.63;;;15.00;99.90;;;;;;5008969;28;20404;-72
2022/07/17 06:07:59;;;;;;;7.65;3.53;;;15.10;99.90;;;;;;4994963;28;20202;-71
2022/07/17 06:10:26;;;;;;;7.82;3.30;;;15.20;99.90;;;;;;5010389;28;20034;-72
2022/07/17 06:12:52;;;;;;;6.45;3.25;;;15.30;99.90;;;;;;5011749;28;20432;-71
2022/07/17 06:15:20;;;;;;;7.95;3.60;;;15.40;99.90;;;;;;5007056;28;20042;-70
2022/07/17 06:17:46;;;;;;;6.70;2.88;;;15.50;99.90;;;;;;5008662;28;20034;-71
2022/07/17 06:20:13;;;;;;;7.40;3.35;;;15.60;99.90;;;;;;5008227;28;20038;-71
2022/07/17 06:22:40;;;;;;;6.13;3.05;;;15.70;99.90;;;;;;5008151;28;20373;-71
2022/07/17 06:25:06;;;;;;;6.00;2.92;;;15.80;99.90;;;;;;5009307;28;20052;-71
2022/07/17 06:27:32;;;;;;;6.70;2.78;;;15.90;99.90;;;;;;5013743;28;20029;-72
2022/07/17 06:29:58;;;;;;;5.38;2.85;;;16.00;99.90;;;;;;5021821;28;20361;-71
2022/07/17 06:32:24;;;;;;;6.78;2.70;;;16.20;99.90;;;;;;5007583;28;20052;-71
2022/07/17 06:34:50;;;;;;;4.65;2.83;;;16.30;99.90;;;;;;5008191;28;20042;-71
2022/07/17 06:37:15;;;;;;;4.57;2.30;;;16.40;99.90;;;;;;4990958;28;20034;-70
2022/07/17 06:39:41;;;;;;;6.15;2.50;;;16.50;99.90;;;;;;5009139;28;20089;-72
2022/07/17 06:42:07;;;;;;;5.55;2.60;;;16.60;99.90;;;;;;5007392;28;20451;-70
2022/07/17 06:44:34;;;;;;;6.55;2.47;;;16.70;99.90;;;;;;5008227;28;20034;-71
2022/07/17 06:47:00;;;;;;;5.63;2.53;;;16.90;99.90;;;;;;5009182;28;20072;-71
2022/07/17 06:49:25;;;;;;;6.28;2.60;;;17.00;99.90;;;;;;5008194;28;20037;-74
2022/07/17 06:51:51;;;;;;;6.93;2.38;;;17.20;99.90;;;;;;5007035;28;20373;-71
2022/07/17 06:54:17;;;;;;;4.78;2.72;;;17.30;99.90;;;;;;5012757;28;20147;-71
2022/07/17 06:56:43;;;;;;;5.97;2.60;;;17.40;99.90;;;;;;5015217;28;20041;-71
2022/07/17 06:59:09;;;;;;;5.28;2.47;;;17.60;99.90;;;;;;5008637;28;20044;-71
2022/07/17 07:01:36;;;;;;;6.35;2.40;;;17.70;99.90;;;;;;4996915;28;20062;-71
2022/07/17 07:04:03;;;;;;;5.32;2.28;;;17.90;99.90;;;;;;4990251;28;20122;-71
2022/07/17 07:06:29;;;;;;;5.72;2.45;;;18.00;99.90;;;;;;5012366;28;20477;-71
2022/07/17 07:08:55;;;;;;;5.85;2.30;;;18.20;99.90;;;;;;5006924;28;20045;-70
2022/07/17 07:11:21;;;;;;;5.53;2.20;;;18.30;99.90;;;;;;5007144;28;20057;-71
2022/07/17 07:13:47;;;;;;;8.77;2.35;;;18.50;99.90;;;;;;5009769;28;20061;-72
2022/07/17 07:16:12;;;;;;;5.68;2.55;;;18.60;99.90;;;;;;5011807;28;20120;-71
2022/07/17 07:18:38;;;;;;;5.55;2.10;;;18.80;99.90;;;;;;5008522;28;20395;-70
2022/07/17 07:21:04;;;;;;;6.60;2.30;;;18.90;99.90;;;;;;5011633;28;20025;-70
2022/07/17 07:23:29;;;;;;;8.73;2.38;;;19.20;99.90;;;;;;5009541;28;20420;-70
2022/07/17 07:25:55;;;;;;;6.65;2.20;;;19.40;99.90;;;;;;5008553;28;20502;-72
2022/07/17 07:28:21;;;;;;;4.63;2.00;;;19.50;99.90;;;;;;5008945;28;21001;-70
2022/07/17 07:30:47;;;;;;;7.38;2.42;;;19.70;99.90;;;;;;5008377;28;20029;-70
2022/07/17 07:33:13;;;;;;;7.43;2.30;;;19.90;99.90;;;;;;5011109;28;20044;-70
2022/07/17 07:35:39;;;;;;;6.07;1.90;;;20.00;99.90;;;;;;5007069;28;21007;-71
2022/07/17 07:38:05;;;;;;;4.35;1.90;;;20.10;99.90;;;;;;5007058;28;20888;-70
2022/07/17 07:40:31;;;;;;;6.57;2.10;;;20.20;99.90;;;;;;5004756;28;20161;-71
2022/07/17 07:42:57;;;;;;;7.28;1.98;;;20.40;99.90;;;;;;5006604;28;20092;-70
2022/07/17 07:45:23;;;;;;;4.60;1.70;;;20.50;99.90;;;;;;5001515;28;20052;-69
2022/07/17 07:47:50;;;;;;;5.60;1.80;;;20.70;99.90;;;;;;5006225;28;20029;-71
2022/07/17 07:50:17;;;;;;;4.50;1.63;;;20.80;99.90;;;;;;5005319;28;20048;-72
2022/07/17 07:52:43;;;;;;;4.38;1.98;;;21.00;99.90;;;;;;5003112;28;20034;-71
2022/07/17 07:55:11;;;;;;;5.75;1.80;;;21.10;99.90;;;;;;5005327;28;20560;-71
2022/07/17 07:57:36;;;;;;;6.32;1.75;;;21.20;99.90;;;;;;5007173;28;20389;-70
2022/07/17 08:00:04;;;;;;;5.22;1.67;;;21.30;99.90;;;;;;5015485;28;20041;-71
2022/07/17 08:02:30;;;;;;;4.30;1.83;;;21.40;99.90;;;;;;5006858;28;20120;-72
2022/07/17 08:04:56;;;;;;;3.67;1.65;;;21.50;99.70;;;;;;5003620;28;20168;-72
2022/07/17 08:07:22;;;;;;;5.82;1.83;;;21.60;99.90;;;;;;5005807;28;20038;-71
2022/07/17 08:09:48;;;;;;;5.82;1.60;;;21.70;99.90;;;;;;5007317;28;20404;-70
2022/07/17 08:12:14;;;;;;;5.85;1.73;;;21.90;98.10;;;;;;5005848;28;20559;-71
2022/07/17 08:14:40;;;;;;;4.68;1.88;;;22.00;98.90;;;;;;4989953;28;20038;-71
2022/07/17 08:17:05;;;;;;;5.00;1.88;;;22.10;98.30;;;;;;5018968;28;20630;-71
2022/07/17 08:19:31;;;;;;;3.70;2.05;;;22.20;98.50;;;;;;4986579;28;20038;-72
2022/07/17 08:21:56;;;;;;;4.72;2.08;;;22.40;98.20;;;;;;5006000;28;20045;-70
2022/07/17 08:24:22;;;;;;;5.30;1.75;;;22.60;97.70;;;;;;5006630;28;20518;-71
2022/07/17 08:26:48;;;;;;;4.63;1.77;;;22.70;97.20;;;;;;5005760;28;20384;-72
2022/07/17 08:29:15;;;;;;;5.03;2.00;;;22.90;95.90;;;;;;5003318;28;20065;-71
2022/07/17 08:31:41;;;;;;;6.10;2.10;;;22.90;95.90;;;;;;4991313;28;20037;-73
2022/07/17 08:34:07;;;;;;;3.42;1.60;;;23.00;95.30;;;;;;5008338;28;20035;-70
2022/07/17 08:36:33;;;;;;;4.10;1.65;;;23.10;96.30;;;;;;5016527;28;20021;-70
2022/07/17 08:38:59;;;;;;;4.78;1.85;;;23.10;94.60;;;;;;5002263;28;20404;-72
2022/07/17 08:41:25;;;;;;;5.68;1.90;;;23.20;95.40;;;;;;5004468;28;20494;-73
2022/07/17 08:43:52;;;;;;;5.47;1.98;;;23.20;96.20;;;;;;5004157;28;20038;-72
2022/07/17 08:46:18;;;;;;;3.30;1.73;;;23.40;94.90;;;;;;5006076;28;20038;-72
2022/07/17 08:48:46;;;;;;;4.50;1.70;;;23.50;93.80;;;;;;5004474;28;20057;-71
2022/07/17 08:51:15;;;;;;;3.63;1.53;;;23.50;94.50;;;;;;5003572;28;20034;-71
2022/07/17 08:53:42;;;;;;;4.77;1.60;;;23.60;93.40;;;;;;5002112;28;20058;-71
2022/07/17 08:56:08;;;;;;;6.43;1.70;;;23.60;92.50;;;;;;5003984;28;20117;-72
2022/07/17 08:58:33;;;;;;;3.97;1.50;;;23.70;92.00;;;;;;5008212;28;20164;-72
2022/07/17 09:00:59;;;;;;;6.50;1.60;;;23.80;93.40;;;;;;5006741;28;20034;-72
2022/07/17 09:03:25;;;;;;;4.13;1.50;;;23.90;92.20;;;;;;4989833;28;20045;-73
2022/07/17 09:05:51;;;;;;;3.28;1.50;;;24.00;91.50;;;;;;5015311;28;20034;-70
2022/07/17 09:08:21;;;;;;;4.32;1.55;;;24.10;91.80;;;;;;5008288;28;20046;-73
2022/07/17 09:10:51;;;;;;;6.00;1.85;;;24.30;86.80;;;;;;5001931;28;20045;-71
2022/07/17 09:13:24;;;;;;;3.95;1.50;;;24.40;89.50;;;;;;5005282;28;20034;-71
2022/07/17 09:15:52;;;;;;;3.67;1.40;;;24.40;83.70;;;;;;4991750;28;20143;-71
2022/07/17 09:18:18;;;;;;;3.47;1.30;;;24.40;80.10;;;;;;5005226;28;20503;-71
2022/07/17 09:20:45;;;;;;;3.80;1.50;;;24.40;81.30;;;;;;5006695;28;20110;-70
2022/07/17 09:23:11;;;;;;;2.92;1.30;;;24.40;80.90;;;;;;5014540;28;20037;-71
2022/07/17 09:25:40;;;;;;;2.38;1.15;;;24.40;76.80;;;;;;5008738;28;20040;-71
2022/07/17 09:28:08;;;;;;;4.30;1.30;;;24.40;76.00;;;;;;5005304;28;20129;-70
2022/07/17 09:30:40;;;;;;;4.43;1.48;;;24.50;72.90;;;;;;5008876;28;20041;-71
2022/07/17 09:33:15;;;;;;;3.40;1.30;;;24.50;74.70;;;;;;5007317;28;20034;-73
2022/07/17 09:35:47;;;;;;;3.40;1.40;;;24.60;75.00;;;;;;5009779;28;20099;-72
2022/07/17 09:38:25;;;;;;;3.08;1.25;;;24.70;71.50;;;;;;5017215;28;20168;-72
2022/07/17 09:41:11;;;;;;;3.33;1.30;;;24.80;65.60;;;;;;5010082;28;20060;-73
2022/07/17 09:43:45;;;;;;;4.28;1.60;;;25.00;63.10;;;;;;5007103;28;20078;-73
2022/07/17 09:46:31;;;;;;;3.40;1.40;;;25.00;60.90;;;;;;5006001;28;20443;-71
2022/07/17 09:49:02;;;;;;;3.85;1.20;;;25.00;57.60;;;;;;5007640;28;20048;-74
2022/07/17 09:51:39;;;;;;;4.85;1.30;;;25.00;58.00;;;;;;5003464;28;20030;-74
2022/07/17 09:54:07;;;;;;;3.35;1.40;;;25.10;56.10;;;;;;5007404;28;20129;-71
2022/07/17 09:56:34;;;;;;;3.28;1.38;;;25.10;55.00;;;;;;5009275;28;20037;-71
2022/07/17 09:59:18;;;;;;;3.67;1.20;;;25.20;57.00;;;;;;5008401;28;20033;-71
2022/07/17 10:01:49;;;;;;;2.97;1.40;;;25.40;52.10;;;;;;5008891;28;20038;-72
2022/07/17 10:04:16;;;;;;;2.65;1.38;;;25.40;50.80;;;;;;5008762;28;20127;-71
2022/07/17 10:06:42;;;;;;;5.68;1.40;;;25.50;46.50;;;;;;5007452;28;20064;-71
2022/07/17 10:09:08;;;;;;;3.15;1.40;;;25.60;46.60;;;;;;5005477;28;20121;-71
2022/07/17 10:11:37;;;;;;;2.60;1.17;;;25.50;44.60;;;;;;5009167;28;20241;-72
2022/07/17 10:14:07;;;;;;;3.25;1.30;;;25.60;47.30;;;;;;5007525;28;20037;-72
2022/07/17 10:16:36;;;;;;;4.80;1.30;;;25.70;45.60;;;;;;4995526;28;20087;-71
2022/07/17 10:19:02;;;;;;;2.95;1.30;;;25.70;42.70;;;;;;5005902;28;20025;-73
2022/07/17 10:21:30;;;;;;;4.05;1.30;;;25.60;41.40;;;;;;4992054;28;20122;-72
2022/07/17 10:24:06;;;;;;;3.08;1.38;;;25.50;41.70;;;;;;5000430;28;20041;-73
2022/07/17 10:26:33;;;;;;;2.40;1.33;;;25.60;44.00;;;;;;5007201;28;20033;-71
2022/07/17 10:28:59;;;;;;;2.97;1.35;;;25.70;44.50;;;;;;5006627;28;20034;-72
2022/07/17 10:31:30;;;;;;;4.47;1.48;;;25.80;45.30;;;;;;4989613;28;20092;-75
2022/07/17 10:34:04;;;;;;;3.30;1.40;;;26.00;45.80;;;;;;5005220;28;20064;-74
2022/07/17 10:36:38;;;;;;;3.30;1.20;;;26.20;42.20;;;;;;5008047;28;20104;-72
2022/07/17 10:39:30;;;;;;;2.22;1.13;;;26.30;40.80;;;;;;5007301;28;20396;-74
2022/07/17 10:42:01;;;;;;;4.07;1.50;;;26.50;41.30;;;;;;4991838;28;20045;-71
2022/07/17 10:44:28;;;;;;;4.53;1.30;;;26.40;42.30;;;;;;5009287;28;20058;-73
2022/07/17 10:46:55;;;;;;;3.92;1.60;;;26.40;42.20;;;;;;4990838;28;20026;-71
2022/07/17 10:49:25;;;;;;;3.58;1.60;;;26.50;40.90;;;;;;5023851;28;20065;-72
2022/07/17 10:51:51;;;;;;;3.40;1.48;;;26.50;42.20;;;;;;5024450;28;20044;-70
2022/07/17 10:54:18;;;;;;;4.63;1.80;;;26.50;41.40;;;;;;5011411;28;20499;-72
2022/07/17 10:56:44;;;;;;;3.42;1.90;;;26.70;42.10;;;;;;4972878;28;20466;-72
2022/07/17 10:59:10;;;;;;;3.72;1.90;;;26.70;41.70;;;;;;4990952;28;20113;-75
2022/07/17 11:01:37;;;;;;;3.22;2.00;;;26.60;40.40;;;;;;4990604;28;20057;-72
2022/07/17 11:04:04;;;;;;;4.53;2.00;;;26.60;41.70;;;;;;5007054;28;20484;-71
2022/07/17 11:06:38;;;;;;;3.80;1.98;;;26.70;43.60;;;;;;5010213;28;20038;-73
2022/07/17 11:09:05;;;;;;;3.50;1.85;;;26.90;39.00;;;;;;4992403;28;20816;-72
2022/07/17 11:11:51;;;;;;;4.43;2.10;;;26.70;38.90;;;;;;5009977;28;20061;-72
2022/07/17 11:14:20;;;;;;;4.70;2.42;;;26.70;40.50;;;;;;4993421;28;20567;-73
2022/07/17 11:16:51;;;;;;;3.95;2.05;;;26.70;41.10;;;;;;5029843;28;20037;-71
2022/07/17 11:19:43;;;;;;;5.00;2.22;;;26.80;40.10;;;;;;5012143;28;20689;-73
2022/07/17 11:22:11;;;;;;;3.55;2.03;;;26.80;40.50;;;;;;5025979;28;20052;-73
2022/07/17 11:24:45;;;;;;;2.92;1.77;;;26.90;41.40;;;;;;5013974;28;20050;-74
2022/07/17 11:27:13;;;;;;;3.38;2.00;;;26.90;40.70;;;;;;5011880;28;20037;-73
2022/07/17 11:29:43;;;;;;;4.10;2.00;;;27.10;42.30;;;;;;5010161;28;20546;-75
2022/07/17 11:32:09;;;;;;;3.53;1.70;;;27.40;40.10;;;;;;5006381;28;20041;-72
2022/07/17 11:34:35;;;;;;;4.85;1.80;;;27.20;40.80;;;;;;5006091;28;20033;-75
2022/07/17 11:37:03;;;;;;;3.53;1.90;;;27.30;41.20;;;;;;5006251;28;20026;-74
2022/07/17 11:39:45;;;;;;;3.63;1.83;;;27.40;40.30;;;;;;5016655;28;20080;-74
2022/07/17 11:42:16;;;;;;;3.63;1.92;;;27.60;40.20;;;;;;5008701;28;20476;-75
2022/07/17 11:44:45;;;;;;;4.07;2.00;;;28.00;39.40;;;;;;5020143;28;20037;-74
2022/07/17 11:47:12;;;;;;;3.17;1.83;;;28.30;38.60;;;;;;5004938;28;20041;-74
2022/07/17 11:49:42;;;;;;;3.53;1.90;;;28.50;39.00;;;;;;4988974;28;20056;-73
2022/07/17 11:52:17;;;;;;;3.80;1.80;;;28.30;38.10;;;;;;5003727;28;20033;-74
2022/07/17 11:55:03;;;;;;;5.13;2.05;;;27.90;39.20;;;;;;5005775;28;20033;-73
2022/07/17 11:57:40;;;;;;;6.57;2.22;;;27.80;39.30;;;;;;5008948;28;20050;-74
2022/07/17 12:00:08;;;;;;;4.03;2.05;;;27.60;39.20;;;;;;5007872;28;20038;-73
2022/07/17 12:02:34;;;;;;;5.63;2.05;;;27.30;38.00;;;;;;5008182;28;20136;-74
2022/07/17 12:04:59;;;;;;;4.88;1.90;;;27.40;38.50;;;;;;5004132;28;20075;-74
2022/07/17 12:07:37;;;;;;;4.93;1.98;;;27.40;40.10;;;;;;5010595;28;20392;-71
2022/07/17 12:10:13;;;;;;;4.77;2.00;;;27.60;38.80;;;;;;5006342;28;20026;-73
2022/07/17 12:12:39;;;;;;;3.63;1.65;;;27.70;39.50;;;;;;5005291;28;20028;-74
2022/07/17 12:15:06;;;;;;;3.97;1.83;;;27.70;39.70;;;;;;5012168;28;20038;-73
2022/07/17 12:17:41;;;;;;;7.03;2.40;;;27.80;39.50;;;;;;5004570;28;20030;-73
2022/07/17 12:20:08;;;;;;;4.10;2.22;;;27.90;39.10;;;;;;4993731;28;20100;-73
2022/07/17 12:22:47;;;;;;;4.68;2.20;;;27.90;38.50;;;;;;5008961;28;20040;-73
2022/07/17 12:25:25;;;;;;;;;;;27.80;39.60;;;;;;5006758;28;20040;-73
2022/07/17 12:27:51;;;;;;;3.72;2.00;;;27.70;39.60;;;;;;4996466;28;19917;-74
2022/07/17 12:30:17;;;;;;;3.83;2.00;;;27.70;39.80;;;;;;4994646;28;20140;-74
2022/07/17 12:32:43;;;;;;;3.08;1.90;;;27.70;40.40;;;;;;5012513;28;20113;-72
2022/07/17 12:35:09;;;;;;;4.05;2.28;;;27.70;40.80;;;;;;5008281;28;20109;-73
2022/07/17 12:37:35;;;;;;;4.57;2.22;;;27.90;39.20;;;;;;4986688;28;20117;-72
2022/07/17 12:40:01;;;;;;;4.78;2.50;;;28.00;40.40;;;;;;5001673;28;20428;-73
2022/07/17 12:42:28;;;;;;;4.13;2.33;;;27.90;39.50;;;;;;5007204;28;20053;-76
2022/07/17 12:44:53;;;;;;;4.93;2.17;;;28.00;39.60;;;;;;4983647;28;20081;-73
2022/07/17 12:47:19;;;;;;;3.90;1.83;;;28.20;40.80;;;;;;5001253;28;20192;-75